Time;durP1;ratioP1;P1;durP2;ratioP2;P2;SDS_P1;SDS_P2;PMS_P1;PMS_P2;Temp;Humidity;BMP_temperature;BMP_pressure;BME280_temperature;BME280_humidity;BME280_pressure;Samples;Min_cycle;Max_cycle;Signal;HPM_P1;HPM_P2
2022/04/22 00:01:38;;;;;;;1.38;0.90;;;12.00;61.00;;;;;;5079862;28;20127;-73
2022/04/22 00:04:04;;;;;;;1.10;0.85;;;12.00;61.10;;;;;;5097727;28;20043;-73
2022/04/22 00:06:30;;;;;;;1.38;0.80;;;11.90;61.20;;;;;;5096000;28;20032;-73
2022/04/22 00:08:56;;;;;;;2.42;0.90;;;11.90;61.30;;;;;;5114708;28;20161;-73
2022/04/22 00:11:29;;;;;;;1.20;1.00;;;11.90;61.40;;;;;;5095154;28;20130;-73
2022/04/22 00:13:56;;;;;;;1.20;0.70;;;11.80;61.40;;;;;;5114001;28;20128;-72
2022/04/22 00:16:22;;;;;;;0.80;0.77;;;11.90;61.50;;;;;;5114177;28;20098;-73
2022/04/22 00:18:47;;;;;;;1.65;0.80;;;11.80;61.60;;;;;;5095626;28;20046;-73
2022/04/22 00:21:13;;;;;;;1.05;0.80;;;11.80;61.70;;;;;;5113968;28;20501;-73
2022/04/22 00:23:39;;;;;;;1.27;0.88;;;11.80;61.70;;;;;;5114918;28;20056;-73
2022/04/22 00:26:05;;;;;;;1.02;0.80;;;11.70;61.80;;;;;;5114116;28;20093;-73
2022/04/22 00:28:30;;;;;;;0.93;0.77;;;11.80;62.00;;;;;;5096149;28;20035;-73
2022/04/22 00:30:56;;;;;;;1.08;0.68;;;11.70;62.00;;;;;;5114368;28;20415;-73
2022/04/22 00:33:22;;;;;;;1.23;0.80;;;11.70;62.10;;;;;;5114059;28;20071;-73
2022/04/22 00:35:48;;;;;;;1.20;0.90;;;11.60;62.10;;;;;;5096264;28;20047;-72
2022/04/22 00:38:14;;;;;;;0.90;0.65;;;11.60;62.80;;;;;;5114783;28;20043;-73
2022/04/22 00:40:40;;;;;;;2.15;1.10;;;11.60;62.30;;;;;;5114305;28;20535;-72
2022/04/22 00:43:21;;;;;;;1.95;0.82;;;11.60;62.40;;;;;;5114468;28;20036;-72
2022/04/22 00:45:48;;;;;;;0.65;0.65;;;11.60;62.50;;;;;;5114574;28;20055;-72
2022/04/22 00:48:15;;;;;;;1.73;0.90;;;11.50;62.50;;;;;;5113472;28;20082;-72
2022/04/22 00:50:42;;;;;;;1.20;0.80;;;11.50;62.60;;;;;;5113489;28;20069;-72
2022/04/22 00:53:09;;;;;;;1.00;0.82;;;11.50;62.60;;;;;;5113340;28;20482;-72
2022/04/22 00:55:37;;;;;;;0.77;0.63;;;11.50;62.70;;;;;;5095273;28;20046;-72
2022/04/22 00:58:04;;;;;;;0.88;0.70;;;11.40;62.80;;;;;;5113667;28;20473;-73
2022/04/22 01:00:30;;;;;;;0.70;0.68;;;11.40;62.80;;;;;;5113569;28;20528;-72
2022/04/22 01:02:56;;;;;;;1.25;0.88;;;11.40;62.90;;;;;;5113086;28;20088;-72
2022/04/22 01:10:46;;;;;;;1.33;1.00;;;11.40;63.20;;;;;;5113487;28;20126;-73
2022/04/22 01:13:12;;;;;;;1.60;0.77;;;11.40;63.20;;;;;;5113183;28;20469;-72
2022/04/22 01:15:38;;;;;;;0.70;0.70;;;11.30;63.20;;;;;;5113351;28;20039;-73
2022/04/22 01:18:04;;;;;;;1.38;0.88;;;11.30;63.30;;;;;;5113723;28;20077;-73
2022/04/22 01:20:30;;;;;;;0.82;0.70;;;11.20;63.40;;;;;;5113145;28;20550;-73
2022/04/22 01:22:56;;;;;;;0.60;0.60;;;11.20;63.40;;;;;;5113161;28;20047;-73
2022/04/22 01:25:22;;;;;;;1.02;0.80;;;11.20;63.50;;;;;;5113260;28;20560;-73
2022/04/22 01:27:51;;;;;;;0.85;0.60;;;11.20;63.50;;;;;;5113162;28;20070;-73
2022/04/22 01:30:22;;;;;;;0.95;0.85;;;11.20;63.60;;;;;;5094315;28;20043;-73
2022/04/22 01:32:56;;;;;;;1.67;0.90;;;11.20;63.70;;;;;;5113637;28;20043;-72
2022/04/22 01:35:24;;;;;;;0.73;0.73;;;11.20;63.80;;;;;;5109232;28;20498;-73
2022/04/22 01:37:50;;;;;;;1.08;0.70;;;11.10;63.80;;;;;;5095267;28;20036;-73
2022/04/22 01:40:17;;;;;;;0.95;0.70;;;11.10;63.80;;;;;;5094487;28;20043;-73
2022/04/22 01:42:43;;;;;;;1.52;0.85;;;11.10;63.90;;;;;;5113010;28;20047;-72
2022/04/22 01:45:10;;;;;;;0.60;0.60;;;11.10;64.00;;;;;;5112699;28;20047;-73
2022/04/22 01:47:36;;;;;;;0.68;0.60;;;11.00;64.10;;;;;;5112885;28;20047;-73
2022/04/22 01:50:02;;;;;;;0.75;0.75;;;11.00;64.10;;;;;;5112824;28;20047;-73
2022/04/22 01:52:29;;;;;;;1.10;0.70;;;11.00;64.10;;;;;;5113214;28;20373;-72
2022/04/22 01:54:56;;;;;;;1.15;0.80;;;11.00;64.30;;;;;;5112739;28;20050;-73
2022/04/22 01:57:22;;;;;;;1.50;0.75;;;11.00;64.30;;;;;;5094315;28;20046;-72
2022/04/22 01:59:48;;;;;;;1.30;0.63;;;11.00;64.40;;;;;;5093864;28;20048;-72
2022/04/22 02:02:16;;;;;;;1.08;0.90;;;11.00;64.40;;;;;;5112968;28;20047;-72
2022/04/22 02:04:42;;;;;;;1.75;0.77;;;10.90;64.40;;;;;;5112930;28;20401;-72
2022/04/22 02:07:09;;;;;;;1.55;0.90;;;10.90;64.50;;;;;;5112746;28;20039;-72
2022/04/22 02:09:35;;;;;;;1.27;0.90;;;10.90;64.60;;;;;;5112466;28;20146;-73
2022/04/22 02:12:01;;;;;;;0.88;0.73;;;10.90;64.60;;;;;;5093973;28;20051;-73
2022/04/22 02:14:27;;;;;;;0.85;0.70;;;10.90;64.60;;;;;;5097056;28;20096;-72
2022/04/22 02:16:53;;;;;;;1.35;0.88;;;10.90;64.70;;;;;;5116432;28;20434;-72
2022/04/22 02:19:20;;;;;;;0.60;0.60;;;10.90;64.70;;;;;;5097286;28;20032;-72
2022/04/22 02:21:46;;;;;;;1.00;0.70;;;10.90;64.80;;;;;;5115562;28;20054;-72
2022/04/22 02:24:12;;;;;;;1.10;0.90;;;10.80;64.70;;;;;;5115606;28;20087;-72
2022/04/22 02:29:23;;;;;;;1.05;0.60;;;10.90;64.90;;;;;;5115622;28;20175;-72
2022/04/22 02:31:52;;;;;;;1.33;0.90;;;10.90;64.90;;;;;;5080837;28;20540;-73
2022/04/22 02:34:20;;;;;;;1.27;0.90;;;10.90;65.00;;;;;;5097789;28;20035;-73
2022/04/22 02:36:45;;;;;;;1.08;0.65;;;10.90;65.00;;;;;;5115679;28;20040;-73
2022/04/22 02:39:11;;;;;;;1.58;0.98;;;10.80;65.00;;;;;;5115525;28;20416;-73
2022/04/22 02:46:54;;;;;;;0.68;0.68;;;10.80;65.30;;;;;;5115437;28;20050;-73
2022/04/22 02:49:20;;;;;;;0.80;0.70;;;10.80;65.40;;;;;;5115827;28;20126;-72
2022/04/22 02:51:46;;;;;;;0.82;0.60;;;10.70;65.50;;;;;;5115513;28;20457;-73
2022/04/22 02:54:11;;;;;;;0.95;0.73;;;10.70;65.60;;;;;;5115729;28;20032;-72
2022/04/22 02:56:38;;;;;;;0.88;0.73;;;10.70;65.70;;;;;;5097469;28;20067;-73
2022/04/22 02:59:05;;;;;;;1.05;0.77;;;10.60;65.80;;;;;;5115709;28;20047;-71
2022/04/22 03:01:30;;;;;;;0.95;0.85;;;10.60;65.90;;;;;;5115894;28;20039;-73
2022/04/22 03:03:56;;;;;;;0.75;0.68;;;10.50;66.00;;;;;;5115086;28;20390;-73
2022/04/22 03:06:24;;;;;;;1.33;0.82;;;10.60;66.10;;;;;;5096120;28;20490;-72
2022/04/22 03:08:50;;;;;;;1.38;0.98;;;10.60;66.20;;;;;;5115224;28;20393;-73
2022/04/22 03:11:21;;;;;;;1.08;0.95;;;10.60;66.30;;;;;;5115080;28;20050;-72
2022/04/22 03:13:49;;;;;;;;;;;10.50;66.40;;;;;;5115848;28;20036;-73
2022/04/22 03:16:17;;;;;;;1.45;0.80;;;10.40;66.30;;;;;;5098067;28;19919;-72
2022/04/22 03:18:43;;;;;;;0.95;0.65;;;10.50;66.40;;;;;;5115691;28;20381;-73
2022/04/22 03:21:09;;;;;;;1.25;0.80;;;10.50;66.50;;;;;;5115394;28;20032;-73
2022/04/22 03:23:35;;;;;;;1.80;0.90;;;10.50;66.70;;;;;;5096369;28;20610;-73
2022/04/22 03:26:01;;;;;;;1.02;0.68;;;10.40;66.70;;;;;;5114701;28;20052;-72
2022/04/22 03:28:27;;;;;;;1.17;0.88;;;10.40;66.90;;;;;;5096997;28;20039;-74
2022/04/22 03:30:53;;;;;;;1.25;0.77;;;10.40;67.70;;;;;;5114975;28;20035;-73
2022/04/22 03:33:19;;;;;;;1.23;0.80;;;10.40;67.10;;;;;;5096416;28;20096;-73
2022/04/22 03:35:50;;;;;;;2.03;1.05;;;10.40;67.30;;;;;;5115063;28;20035;-73
2022/04/22 03:38:16;;;;;;;1.75;0.90;;;10.30;67.40;;;;;;5115150;28;20028;-73
2022/04/22 03:40:42;;;;;;;1.20;0.90;;;10.30;67.50;;;;;;5114817;28;20396;-72
2022/04/22 03:43:08;;;;;;;1.20;0.93;;;10.30;67.60;;;;;;5115042;28;20050;-73
2022/04/22 03:45:33;;;;;;;0.68;0.65;;;10.30;67.70;;;;;;5094015;28;20044;-73
2022/04/22 03:47:59;;;;;;;1.17;0.90;;;10.30;67.80;;;;;;5114653;28;20059;-73
2022/04/22 03:50:26;;;;;;;1.30;1.00;;;10.30;67.90;;;;;;5114827;28;20036;-72
2022/04/22 03:52:52;;;;;;;2.53;1.20;;;10.30;68.10;;;;;;5115253;28;20036;-72
2022/04/22 03:55:19;;;;;;;1.17;1.00;;;10.30;68.10;;;;;;5115086;28;20046;-73
2022/04/22 04:00:32;;;;;;;3.53;1.15;;;10.20;68.30;;;;;;5114356;28;20070;-72
2022/04/22 04:02:58;;;;;;;1.38;0.90;;;10.20;68.40;;;;;;5096070;28;20393;-72
2022/04/22 04:05:23;;;;;;;1.27;0.80;;;10.20;68.40;;;;;;5096540;28;20050;-73
2022/04/22 04:07:49;;;;;;;1.30;0.90;;;10.20;68.60;;;;;;5114766;28;20134;-72
2022/04/22 04:16:10;;;;;;;1.38;1.00;;;10.10;68.80;;;;;;5114575;28;20051;-73
2022/04/22 04:18:16;;;;;;;1.48;1.00;;;10.10;68.90;;;;;;5112651;28;20047;-72
2022/04/22 04:23:21;;;;;;;1.23;1.00;;;10.10;69.10;;;;;;5114517;28;20073;-72
2022/04/22 04:25:49;;;;;;;1.75;1.02;;;10.10;69.20;;;;;;5114270;28;20039;-72
2022/04/22 04:28:17;;;;;;;1.73;1.10;;;10.00;69.30;;;;;;5115072;28;20045;-73
2022/04/22 04:30:44;;;;;;;2.53;0.80;;;10.10;69.40;;;;;;5096073;28;20108;-73
2022/04/22 04:33:10;;;;;;;1.15;0.95;;;10.10;69.50;;;;;;5114344;28;20051;-73
2022/04/22 04:35:38;;;;;;;1.42;0.90;;;10.10;69.60;;;;;;5095302;28;20044;-73
2022/04/22 04:38:06;;;;;;;1.42;0.90;;;10.10;69.60;;;;;;5114475;28;20039;-74
2022/04/22 04:40:33;;;;;;;1.33;1.02;;;10.00;69.70;;;;;;5114036;28;20043;-73
2022/04/22 04:43:00;;;;;;;1.65;0.88;;;10.00;69.70;;;;;;5095903;28;20051;-73
2022/04/22 04:45:27;;;;;;;1.38;1.10;;;10.00;69.80;;;;;;5114373;28;20403;-74
2022/04/22 04:47:53;;;;;;;1.67;1.17;;;10.10;69.90;;;;;;5095802;28;20035;-73
2022/04/22 04:50:19;;;;;;;1.40;1.10;;;10.10;69.90;;;;;;5114321;28;20050;-73
2022/04/22 04:52:44;;;;;;;1.65;1.10;;;10.10;70.00;;;;;;5062520;28;20481;-73
2022/04/22 04:55:13;;;;;;;2.22;1.30;;;10.00;69.90;;;;;;5114290;28;20031;-72
2022/04/22 04:57:39;;;;;;;2.20;1.50;;;10.00;70.00;;;;;;5114548;28;20028;-73
2022/04/22 05:00:06;;;;;;;1.27;1.17;;;10.10;70.10;;;;;;5078362;28;20169;-72
2022/04/22 05:02:34;;;;;;;1.67;1.27;;;10.00;70.00;;;;;;5114551;28;20059;-72
2022/04/22 05:05:01;;;;;;;1.25;0.90;;;10.00;70.00;;;;;;5113809;28;20181;-73
2022/04/22 05:07:27;;;;;;;1.10;0.88;;;10.00;70.20;;;;;;5096357;28;20051;-73
2022/04/22 05:09:53;;;;;;;1.25;0.90;;;10.00;70.30;;;;;;5095815;28;20097;-72
2022/04/22 05:12:19;;;;;;;1.30;0.90;;;10.00;70.40;;;;;;5113796;28;20042;-72
2022/04/22 05:14:46;;;;;;;1.50;1.00;;;10.00;70.40;;;;;;5114184;28;20118;-72
2022/04/22 05:17:12;;;;;;;1.98;1.23;;;10.00;70.40;;;;;;5095498;28;20044;-73
2022/04/22 05:19:38;;;;;;;2.05;1.30;;;10.00;70.60;;;;;;5095247;28;20050;-71
2022/04/22 05:22:04;;;;;;;1.00;0.90;;;10.00;70.60;;;;;;5113505;28;20044;-72
2022/04/22 05:24:31;;;;;;;1.23;1.02;;;9.90;70.60;;;;;;5095127;28;20066;-73
2022/04/22 05:26:57;;;;;;;1.52;1.05;;;10.00;70.70;;;;;;5078515;28;20400;-71
2022/04/22 05:34:46;;;;;;;1.92;1.20;;;9.90;70.80;;;;;;5113287;28;20040;-72
2022/04/22 05:37:12;;;;;;;2.25;1.55;;;10.00;70.90;;;;;;5094813;28;20054;-72
2022/04/22 05:39:38;;;;;;;1.85;1.10;;;10.00;71.00;;;;;;5113952;28;20048;-72
2022/04/22 05:42:04;;;;;;;1.45;1.02;;;10.00;71.00;;;;;;5113618;28;20031;-72
2022/04/22 05:44:30;;;;;;;2.03;1.20;;;10.00;71.00;;;;;;5113894;28;20130;-72
2022/04/22 05:46:55;;;;;;;1.90;1.10;;;10.00;71.60;;;;;;5077963;28;20103;-72
2022/04/22 05:49:21;;;;;;;2.08;1.40;;;10.10;71.00;;;;;;5113235;28;20046;-72
2022/04/22 05:51:47;;;;;;;2.15;1.20;;;10.00;70.90;;;;;;5076997;28;20051;-71
2022/04/22 05:54:12;;;;;;;2.28;1.60;;;10.10;71.00;;;;;;5113562;28;20130;-71
2022/04/22 05:56:38;;;;;;;1.23;1.00;;;10.10;70.90;;;;;;5113782;28;20130;-71
2022/04/22 05:59:04;;;;;;;1.95;1.20;;;10.10;70.90;;;;;;5113702;28;20413;-73
2022/04/22 06:01:30;;;;;;;2.13;1.58;;;10.20;71.00;;;;;;5113108;28;20438;-72
2022/04/22 06:03:56;;;;;;;2.20;1.23;;;10.20;70.90;;;;;;5113312;28;20092;-71
2022/04/22 06:06:22;;;;;;;1.40;1.20;;;10.30;71.00;;;;;;5113029;28;20373;-72
2022/04/22 06:11:26;;;;;;;2.63;1.42;;;10.40;71.10;;;;;;5113071;28;20032;-71
2022/04/22 06:13:52;;;;;;;2.65;1.63;;;10.30;70.90;;;;;;5112426;28;20032;-71
2022/04/22 06:16:18;;;;;;;1.77;1.23;;;10.40;70.90;;;;;;5093966;28;20036;-71
2022/04/22 06:18:44;;;;;;;1.45;1.20;;;10.40;70.90;;;;;;5116078;28;20043;-74
2022/04/22 06:21:09;;;;;;;1.70;1.27;;;10.50;70.80;;;;;;5062426;28;20035;-72
2022/04/22 06:23:35;;;;;;;2.40;1.40;;;10.50;70.80;;;;;;5112924;28;20046;-72
2022/04/22 06:26:01;;;;;;;2.30;1.52;;;10.60;70.80;;;;;;5093630;28;20146;-75
2022/04/22 06:28:26;;;;;;;2.42;1.40;;;10.60;70.80;;;;;;5077236;28;20043;-72
2022/04/22 06:30:52;;;;;;;1.85;1.30;;;10.60;70.70;;;;;;5076941;28;20047;-72
2022/04/22 06:33:18;;;;;;;1.88;1.40;;;10.80;70.80;;;;;;5093278;28;20052;-73
2022/04/22 06:35:44;;;;;;;2.17;1.30;;;10.70;70.80;;;;;;5111890;28;20032;-74
2022/04/22 06:38:14;;;;;;;2.13;1.30;;;10.70;70.80;;;;;;5112585;28;20066;-73
2022/04/22 06:46:03;;;;;;;1.92;1.30;;;10.90;71.30;;;;;;5112058;28;20134;-73
2022/04/22 06:48:31;;;;;;;2.33;1.30;;;11.00;70.60;;;;;;5094151;28;20035;-74
2022/04/22 06:50:59;;;;;;;2.53;1.50;;;10.90;70.60;;;;;;5094371;28;20032;-73
2022/04/22 06:53:25;;;;;;;2.15;1.40;;;11.00;70.60;;;;;;5094202;28;20052;-74
2022/04/22 06:55:53;;;;;;;1.92;1.38;;;11.20;70.60;;;;;;5093230;28;20039;-74
2022/04/22 06:58:20;;;;;;;2.15;1.30;;;11.10;70.50;;;;;;5112917;28;20409;-73
2022/04/22 07:00:47;;;;;;;3.25;1.40;;;11.20;70.50;;;;;;5096403;28;20481;-73
2022/04/22 07:03:15;;;;;;;2.58;1.30;;;11.20;70.40;;;;;;5095472;28;20474;-74
2022/04/22 07:05:43;;;;;;;2.08;1.27;;;11.20;70.50;;;;;;5115435;28;20040;-73
2022/04/22 07:08:13;;;;;;;1.67;1.30;;;11.30;70.50;;;;;;5097028;28;20035;-73
2022/04/22 07:10:41;;;;;;;1.92;1.30;;;11.30;70.50;;;;;;5115433;28;20040;-73
2022/04/22 07:13:08;;;;;;;1.67;1.20;;;11.30;70.60;;;;;;5097395;28;20540;-73
2022/04/22 07:15:34;;;;;;;1.38;1.10;;;11.30;70.60;;;;;;5115308;28;20043;-71
2022/04/22 07:18:00;;;;;;;1.90;1.20;;;11.40;70.60;;;;;;5115025;28;20127;-72
2022/04/22 07:20:26;;;;;;;1.80;1.30;;;11.30;70.60;;;;;;5115715;28;20038;-72
2022/04/22 07:22:53;;;;;;;2.05;1.38;;;11.40;70.60;;;;;;5115385;28;20051;-72
2022/04/22 07:25:20;;;;;;;2.13;1.30;;;11.50;70.50;;;;;;5115353;28;20430;-72
2022/04/22 07:27:47;;;;;;;2.40;1.33;;;11.50;70.40;;;;;;5115481;28;20035;-72
2022/04/22 07:30:15;;;;;;;2.25;1.30;;;11.50;70.40;;;;;;5114702;28;20545;-72
2022/04/22 07:32:41;;;;;;;2.28;1.60;;;11.50;70.40;;;;;;5115372;28;20101;-73
2022/04/22 07:35:12;;;;;;;1.92;1.38;;;11.70;70.50;;;;;;5096485;28;20031;-73
2022/04/22 07:37:40;;;;;;;2.40;1.50;;;11.60;70.40;;;;;;5096217;28;20046;-73
2022/04/22 07:40:06;;;;;;;1.50;1.25;;;11.70;70.40;;;;;;5078947;28;20135;-73
2022/04/22 07:42:34;;;;;;;2.53;1.50;;;11.80;70.30;;;;;;5115172;28;20035;-73
2022/04/22 07:47:46;;;;;;;1.40;1.17;;;11.90;70.10;;;;;;5098925;28;20043;-72
2022/04/22 07:50:14;;;;;;;1.88;1.20;;;12.00;70.00;;;;;;5114365;28;20505;-72
2022/04/22 07:52:41;;;;;;;1.45;1.08;;;12.20;69.90;;;;;;5114325;28;20134;-72
2022/04/22 07:55:07;;;;;;;1.50;1.23;;;12.40;69.60;;;;;;5096172;28;20036;-73
2022/04/22 07:57:33;;;;;;;2.13;1.15;;;12.40;69.30;;;;;;5114334;28;20122;-73
2022/04/22 07:59:59;;;;;;;2.00;1.20;;;12.50;69.10;;;;;;5114239;28;20078;-72
2022/04/22 08:02:24;;;;;;;3.05;1.60;;;12.50;69.00;;;;;;5114297;28;20042;-73
2022/04/22 08:04:51;;;;;;;2.35;1.40;;;12.70;68.80;;;;;;5114423;28;20050;-72
2022/04/22 08:07:18;;;;;;;2.33;1.50;;;12.80;68.70;;;;;;5114066;28;20048;-72
2022/04/22 08:09:45;;;;;;;2.67;1.60;;;13.00;68.50;;;;;;5114143;28;20122;-72
2022/04/22 08:12:12;;;;;;;1.70;1.20;;;13.10;68.40;;;;;;5095914;28;20040;-73
2022/04/22 08:14:39;;;;;;;1.85;1.20;;;13.30;68.30;;;;;;5114595;28;20050;-72
2022/04/22 08:17:05;;;;;;;3.03;1.50;;;13.40;67.80;;;;;;5114070;28;20066;-70
2022/04/22 08:19:31;;;;;;;2.28;1.52;;;13.60;67.50;;;;;;5095806;28;20039;-70
2022/04/22 08:21:57;;;;;;;2.95;1.48;;;13.60;67.60;;;;;;5113804;28;20327;-70
2022/04/22 08:24:24;;;;;;;1.88;1.27;;;13.70;67.50;;;;;;5094224;28;20094;-70
2022/04/22 08:26:51;;;;;;;1.77;1.40;;;13.90;67.20;;;;;;5093709;28;20036;-72
2022/04/22 08:29:17;;;;;;;2.72;1.58;;;13.90;66.90;;;;;;5093838;28;20048;-72
2022/04/22 08:31:44;;;;;;;2.30;1.50;;;14.10;67.00;;;;;;5113687;28;20043;-72
2022/04/22 08:34:10;;;;;;;2.22;1.55;;;14.00;66.90;;;;;;5113766;28;20046;-70
2022/04/22 08:36:36;;;;;;;2.35;1.48;;;14.00;67.10;;;;;;5113790;28;20389;-73
2022/04/22 08:39:04;;;;;;;2.42;1.70;;;13.90;67.30;;;;;;5113955;28;20035;-71
2022/04/22 08:41:34;;;;;;;1.80;1.52;;;13.90;67.60;;;;;;5113930;28;20036;-72
2022/04/22 08:44:01;;;;;;;2.13;1.63;;;13.90;67.70;;;;;;5113701;28;20039;-71
2022/04/22 08:51:50;;;;;;;2.35;1.48;;;14.00;67.70;;;;;;5113141;28;20478;-70
2022/04/22 08:54:17;;;;;;;1.88;1.30;;;14.10;67.70;;;;;;5113544;28;20155;-70
2022/04/22 08:56:44;;;;;;;1.58;1.20;;;14.10;67.50;;;;;;5113084;28;20028;-71
2022/04/22 08:59:10;;;;;;;2.03;1.20;;;14.30;67.40;;;;;;5113890;28;20047;-71
2022/04/22 09:01:37;;;;;;;2.22;1.25;;;14.50;67.20;;;;;;5095081;28;20062;-71
2022/04/22 09:04:04;;;;;;;1.75;1.33;;;14.70;66.80;;;;;;5094439;28;20112;-71
2022/04/22 09:06:31;;;;;;;2.17;1.17;;;15.00;66.30;;;;;;5113025;28;20036;-71
2022/04/22 09:08:58;;;;;;;2.15;1.50;;;15.10;65.80;;;;;;5093439;28;20418;-71
2022/04/22 09:11:25;;;;;;;1.88;1.33;;;15.30;65.60;;;;;;5113268;28;20125;-71
2022/04/22 09:13:51;;;;;;;1.27;1.10;;;15.40;65.60;;;;;;5113808;28;20059;-71
2022/04/22 09:16:21;;;;;;;1.55;1.17;;;15.60;65.60;;;;;;5113117;28;20028;-70
2022/04/22 09:18:57;;;;;;;2.42;1.48;;;15.60;65.50;;;;;;5112780;28;20039;-71
2022/04/22 09:21:24;;;;;;;2.47;1.33;;;15.70;65.30;;;;;;5113215;28;20519;-70
2022/04/22 09:23:50;;;;;;;2.28;1.38;;;15.80;65.20;;;;;;5094986;28;20047;-72
2022/04/22 09:26:25;;;;;;;2.15;1.42;;;15.80;65.30;;;;;;5113428;28;20045;-73
2022/04/22 09:29:00;;;;;;;1.55;1.30;;;15.90;65.30;;;;;;5112811;28;20043;-71
2022/04/22 09:31:27;;;;;;;3.63;1.50;;;15.90;65.10;;;;;;5112861;28;20065;-71
2022/04/22 09:33:54;;;;;;;1.90;1.40;;;15.80;65.10;;;;;;5113494;28;20389;-73
2022/04/22 09:44:58;;;;;;;1.92;1.10;;;16.10;65.10;;;;;;5112365;28;20378;-71
2022/04/22 09:47:30;;;;;;;2.53;1.30;;;16.20;65.10;;;;;;5094463;28;20111;-70
2022/04/22 09:49:56;;;;;;;2.08;1.40;;;16.20;64.80;;;;;;5112768;28;20532;-72
2022/04/22 09:52:31;;;;;;;2.08;1.40;;;16.40;64.80;;;;;;5093712;28;20515;-70
2022/04/22 09:55:01;;;;;;;2.05;1.35;;;16.40;64.40;;;;;;5112638;28;20148;-70
2022/04/22 09:57:27;;;;;;;2.45;1.40;;;16.30;64.50;;;;;;5092118;28;20044;-70
2022/04/22 09:59:53;;;;;;;1.50;1.20;;;16.30;64.70;;;;;;5113004;28;20409;-70
2022/04/22 10:02:25;;;;;;;1.67;1.20;;;16.30;64.70;;;;;;5112583;28;20058;-71
2022/04/22 10:04:54;;;;;;;1.98;1.08;;;16.20;64.70;;;;;;5112500;28;20063;-71
2022/04/22 10:07:23;;;;;;;1.77;1.20;;;16.20;64.70;;;;;;5112281;28;20097;-70
2022/04/22 10:09:50;;;;;;;2.25;1.15;;;16.10;64.90;;;;;;5112573;28;20084;-71
2022/04/22 10:12:18;;;;;;;2.42;1.45;;;16.20;64.90;;;;;;5112885;28;20051;-70
2022/04/22 10:14:45;;;;;;;2.08;1.50;;;16.20;64.70;;;;;;5112359;28;20039;-70
2022/04/22 10:17:12;;;;;;;2.53;1.50;;;16.30;64.50;;;;;;5112586;28;20046;-71
2022/04/22 10:19:37;;;;;;;1.20;1.10;;;16.30;64.20;;;;;;5112187;28;20074;-70
2022/04/22 10:22:04;;;;;;;1.45;1.17;;;16.40;64.20;;;;;;5112256;28;20489;-70
2022/04/22 10:24:32;;;;;;;2.90;1.52;;;16.40;64.20;;;;;;5112870;28;20043;-71
2022/04/22 10:27:03;;;;;;;1.15;1.00;;;16.30;64.30;;;;;;5112466;28;20048;-70
2022/04/22 10:29:30;;;;;;;1.63;1.17;;;16.30;64.50;;;;;;5112032;28;20043;-70
2022/04/22 10:31:56;;;;;;;1.70;1.27;;;16.30;65.00;;;;;;5093611;28;20048;-70
2022/04/22 10:34:38;;;;;;;1.35;1.20;;;16.30;64.20;;;;;;5113112;28;20100;-70
2022/04/22 10:37:05;;;;;;;1.42;1.10;;;16.40;64.10;;;;;;5115388;28;20059;-71
2022/04/22 10:39:34;;;;;;;2.38;1.40;;;16.50;63.90;;;;;;5115670;28;20044;-71
2022/04/22 10:41:59;;;;;;;1.63;1.17;;;16.60;63.60;;;;;;5115592;28;20043;-71
2022/04/22 10:47:13;;;;;;;1.60;1.05;;;16.60;63.30;;;;;;5115488;28;20138;-71
2022/04/22 10:49:45;;;;;;;1.65;1.05;;;16.50;63.30;;;;;;5115543;28;20515;-72
2022/04/22 10:52:14;;;;;;;1.10;1.00;;;16.60;63.30;;;;;;5098268;28;20477;-72
2022/04/22 10:55:08;;;;;;;1.38;1.20;;;16.50;63.30;;;;;;5115655;28;20481;-71
2022/04/22 10:57:34;;;;;;;1.77;1.10;;;16.40;63.20;;;;;;5116084;28;20085;-72
2022/04/22 11:00:27;;;;;;;1.40;1.10;;;16.30;63.50;;;;;;5115342;28;20036;-72
2022/04/22 11:03:02;;;;;;;2.30;1.10;;;16.30;63.60;;;;;;5115854;28;20039;-72
2022/04/22 11:05:37;;;;;;;1.95;1.27;;;16.20;63.60;;;;;;5115279;28;20063;-72
2022/04/22 11:08:05;;;;;;;1.83;1.13;;;16.20;63.40;;;;;;5115757;28;20470;-72
2022/04/22 11:10:56;;;;;;;1.95;1.25;;;16.30;63.20;;;;;;5115548;28;20500;-72
2022/04/22 11:13:41;;;;;;;1.63;1.10;;;16.40;63.10;;;;;;5101262;28;20489;-71
2022/04/22 11:16:14;;;;;;;1.02;0.90;;;16.60;62.60;;;;;;5095702;28;20130;-71
2022/04/22 11:18:43;;;;;;;0.88;0.77;;;16.70;62.30;;;;;;5115041;28;20044;-71
2022/04/22 11:21:15;;;;;;;1.08;0.90;;;17.00;61.80;;;;;;5097096;28;20044;-71
2022/04/22 11:23:44;;;;;;;2.10;1.00;;;17.10;61.70;;;;;;5114913;28;20122;-71
2022/04/22 11:26:15;;;;;;;1.27;0.90;;;17.10;61.30;;;;;;5096508;28;20058;-71
2022/04/22 11:28:42;;;;;;;1.60;1.10;;;17.10;61.20;;;;;;5114939;28;20047;-71
2022/04/22 11:31:10;;;;;;;1.30;1.05;;;17.10;61.00;;;;;;5115517;28;20048;-72
2022/04/22 11:33:54;;;;;;;1.10;1.00;;;17.00;61.10;;;;;;5114760;28;20039;-71
2022/04/22 11:36:21;;;;;;;2.42;1.10;;;16.90;61.10;;;;;;5115065;28;20063;-71
2022/04/22 11:38:50;;;;;;;1.58;1.10;;;16.90;61.30;;;;;;5115228;28;20125;-71
2022/04/22 11:41:16;;;;;;;1.20;1.00;;;16.80;61.10;;;;;;5080163;28;20370;-73
2022/04/22 11:43:43;;;;;;;1.38;1.00;;;16.80;61.20;;;;;;5116143;28;20504;-72
2022/04/22 11:46:12;;;;;;;1.02;0.93;;;16.70;61.20;;;;;;5115838;28;20044;-73
2022/04/22 11:48:45;;;;;;;0.95;0.90;;;16.70;61.20;;;;;;5116448;28;20050;-72
2022/04/22 11:51:11;;;;;;;1.90;0.90;;;16.70;61.20;;;;;;5116287;28;20067;-73
2022/04/22 11:53:44;;;;;;;1.05;0.70;;;16.60;61.00;;;;;;5116395;28;20075;-73
2022/04/22 11:56:10;;;;;;;0.98;0.88;;;16.70;60.80;;;;;;5095536;28;20040;-73
2022/04/22 11:58:35;;;;;;;1.30;0.70;;;16.70;60.60;;;;;;5114531;28;20028;-73
2022/04/22 12:06:26;;;;;;;1.43;0.97;;;16.90;60.10;;;;;;5110495;28;20468;-73
2022/04/22 12:08:54;;;;;;;1.25;0.90;;;16.80;60.10;;;;;;5114160;28;20074;-73
2022/04/22 12:11:22;;;;;;;1.65;1.10;;;16.80;60.10;;;;;;5114809;28;20485;-72
2022/04/22 12:13:49;;;;;;;1.10;0.85;;;16.80;60.00;;;;;;5096278;28;20044;-72
2022/04/22 12:16:20;;;;;;;0.70;0.60;;;16.70;60.60;;;;;;5078009;28;20363;-72
2022/04/22 12:18:48;;;;;;;;;;;16.80;60.10;;;;;;5116205;28;20032;-73
2022/04/22 12:21:15;;;;;;;0.75;0.65;;;16.80;60.00;;;;;;5112254;28;20349;-73
2022/04/22 12:23:42;;;;;;;1.00;0.90;;;16.90;59.90;;;;;;5116739;28;20427;-73
2022/04/22 12:26:20;;;;;;;1.55;0.85;;;17.00;59.60;;;;;;5117009;28;20079;-73
2022/04/22 12:29:09;;;;;;;1.38;0.80;;;17.10;59.40;;;;;;5119895;28;20040;-74
2022/04/22 12:31:39;;;;;;;1.10;0.90;;;17.10;59.30;;;;;;5114348;28;20039;-72
2022/04/22 12:34:07;;;;;;;1.00;0.80;;;17.20;59.20;;;;;;5114004;28;20044;-72
2022/04/22 12:36:38;;;;;;;2.90;1.05;;;17.30;58.90;;;;;;5113913;28;20063;-72
2022/04/22 12:39:06;;;;;;;0.70;0.70;;;17.40;58.80;;;;;;5114186;28;20097;-72
2022/04/22 12:41:45;;;;;;;1.45;0.70;;;17.50;58.70;;;;;;5114013;28;20059;-71
2022/04/22 12:44:13;;;;;;;0.85;0.70;;;17.60;58.60;;;;;;5095702;28;20040;-71
2022/04/22 12:52:19;;;;;;;1.20;0.98;;;17.60;58.40;;;;;;5113623;28;19941;-72
2022/04/22 12:54:48;;;;;;;0.95;0.88;;;17.50;58.50;;;;;;5114231;28;20040;-72
2022/04/22 12:57:21;;;;;;;1.35;1.10;;;17.60;58.40;;;;;;5093793;28;20047;-72
2022/04/22 12:59:49;;;;;;;1.45;1.23;;;17.60;58.20;;;;;;5113450;28;20115;-71
2022/04/22 13:02:16;;;;;;;1.50;1.15;;;17.70;58.10;;;;;;5095585;28;20047;-71
2022/04/22 13:04:54;;;;;;;1.00;0.88;;;17.80;58.00;;;;;;5113816;28;20044;-71
2022/04/22 13:07:21;;;;;;;1.15;0.80;;;17.80;57.70;;;;;;5113370;28;20039;-72
2022/04/22 13:09:47;;;;;;;2.17;0.82;;;17.90;57.90;;;;;;5113173;28;20046;-71
2022/04/22 13:12:13;;;;;;;0.98;0.80;;;18.10;57.70;;;;;;5113190;28;20050;-72
2022/04/22 13:14:39;;;;;;;1.35;0.90;;;18.20;57.20;;;;;;5113359;28;20036;-72
2022/04/22 13:17:05;;;;;;;0.80;0.80;;;18.20;56.90;;;;;;5093316;28;20119;-70
2022/04/22 13:19:32;;;;;;;1.20;0.90;;;18.30;56.90;;;;;;5113698;28;20078;-70
2022/04/22 13:21:57;;;;;;;0.70;0.70;;;18.20;56.90;;;;;;5113411;28;20035;-69
2022/04/22 13:24:23;;;;;;;1.40;1.00;;;18.20;56.90;;;;;;5113561;28;20042;-70
2022/04/22 13:26:49;;;;;;;1.60;1.10;;;18.20;57.00;;;;;;5095427;28;20151;-69
2022/04/22 13:29:16;;;;;;;1.50;0.80;;;18.00;57.20;;;;;;5113512;28;20058;-70
2022/04/22 13:31:42;;;;;;;0.90;0.77;;;17.90;57.30;;;;;;5094670;28;20073;-71
2022/04/22 13:34:07;;;;;;;1.17;0.90;;;17.80;57.40;;;;;;5094602;28;20436;-70
2022/04/22 13:36:35;;;;;;;1.08;0.70;;;17.80;57.60;;;;;;5094609;28;20044;-71
2022/04/22 13:39:01;;;;;;;0.68;0.68;;;17.70;57.70;;;;;;5112701;28;20039;-71
2022/04/22 13:41:26;;;;;;;1.23;0.80;;;17.70;57.70;;;;;;5095083;28;20039;-71
2022/04/22 13:43:52;;;;;;;2.33;1.10;;;17.80;57.70;;;;;;5112864;28;20042;-69
2022/04/22 13:54:14;;;;;;;1.37;1.00;;;18.00;56.90;;;;;;5112437;28;20262;-70
2022/04/22 13:56:40;;;;;;;1.55;1.00;;;18.10;56.70;;;;;;5094963;28;20038;-71
2022/04/22 13:59:06;;;;;;;1.50;0.90;;;18.10;56.70;;;;;;5094304;28;20385;-72
2022/04/22 14:01:32;;;;;;;0.98;0.88;;;18.10;56.50;;;;;;5094877;28;20047;-72
2022/04/22 14:03:57;;;;;;;2.10;0.90;;;18.10;56.30;;;;;;5112636;28;20039;-71
2022/04/22 14:06:23;;;;;;;1.30;0.90;;;18.20;56.30;;;;;;5077261;28;20032;-70